sensor_id;sensor_type;location;lat;lon;timestamp;temperature;humidity
16635;DHT22;8431;52.458;9.998;2023-07-28T00:00:16;17.20;99.90
16635;DHT22;8431;52.458;9.998;2023-07-28T00:02:47;17.20;99.90
16635;DHT22;8431;52.458;9.998;2023-07-28T00:05:26;17.20;99.90
16635;DHT22;8431;52.458;9.998;2023-07-28T00:07:57;17.20;99.90
16635;DHT22;8431;52.458;9.998;2023-07-28T00:10:29;17.20;99.90
16635;DHT22;8431;52.458;9.998;2023-07-28T00:12:56;17.20;99.90
16635;DHT22;8431;52.458;9.998;2023-07-28T00:15:23;17.10;99.90
16635;DHT22;8431;52.458;9.998;2023-07-28T00:17:51;17.20;99.90
16635;DHT22;8431;52.458;9.998;2023-07-28T00:20:18;17.10;99.90
16635;DHT22;8431;52.458;9.998;2023-07-28T00:22:46;17.20;99.90
16635;DHT22;8431;52.458;9.998;2023-07-28T00:25:20;17.20;99.90
16635;DHT22;8431;52.458;9.998;2023-07-28T00:27:47;17.20;99.90
16635;DHT22;8431;52.458;9.998;2023-07-28T00:30:15;17.10;99.90
16635;DHT22;8431;52.458;9.998;2023-07-28T00:32:41;17.20;99.90
16635;DHT22;8431;52.458;9.998;2023-07-28T00:35:11;17.20;99.90
16635;DHT22;8431;52.458;9.998;2023-07-28T00:37:39;17.20;99.90
16635;DHT22;8431;52.458;9.998;2023-07-28T00:40:08;17.20;99.90
16635;DHT22;8431;52.458;9.998;2023-07-28T00:42:36;17.20;99.90
16635;DHT22;8431;52.458;9.998;2023-07-28T00:45:04;17.20;99.90
16635;DHT22;8431;52.458;9.998;2023-07-28T00:47:31;17.20;99.90
16635;DHT22;8431;52.458;9.998;2023-07-28T00:49:59;17.10;99.90
16635;DHT22;8431;52.458;9.998;2023-07-28T00:52:26;17.10;99.90
16635;DHT22;8431;52.458;9.998;2023-07-28T00:54:53;17.20;99.90
16635;DHT22;8431;52.458;9.998;2023-07-28T00:57:21;17.10;99.90
16635;DHT22;8431;52.458;9.998;2023-07-28T00:59:50;17.10;99.90
16635;DHT22;8431;52.458;9.998;2023-07-28T01:02:18;17.10;99.90
16635;DHT22;8431;52.458;9.998;2023-07-28T01:04:49;17.10;99.90
16635;DHT22;8431;52.458;9.998;2023-07-28T01:07:20;17.10;99.90
16635;DHT22;8431;52.458;9.998;2023-07-28T01:09:59;17.10;99.90
16635;DHT22;8431;52.458;9.998;2023-07-28T01:12:27;17.10;99.90
16635;DHT22;8431;52.458;9.998;2023-07-28T01:14:59;17.10;99.90
16635;DHT22;8431;52.458;9.998;2023-07-28T01:17:26;17.10;99.90
16635;DHT22;8431;52.458;9.998;2023-07-28T01:19:53;17.10;99.90
16635;DHT22;8431;52.458;9.998;2023-07-28T01:22:53;17.10;99.90
16635;DHT22;8431;52.458;9.998;2023-07-28T01:25:36;17.10;99.90
16635;DHT22;8431;52.458;9.998;2023-07-28T01:28:10;17.10;99.90
16635;DHT22;8431;52.458;9.998;2023-07-28T01:30:38;17.10;99.90
16635;DHT22;8431;52.458;9.998;2023-07-28T01:33:06;17.10;99.90
16635;DHT22;8431;52.458;9.998;2023-07-28T01:35:35;17.10;99.90
16635;DHT22;8431;52.458;9.998;2023-07-28T01:38:03;17.10;99.90
16635;DHT22;8431;52.458;9.998;2023-07-28T01:40:30;17.10;99.90
16635;DHT22;8431;52.458;9.998;2023-07-28T01:42:58;17.10;99.90
16635;DHT22;8431;52.458;9.998;2023-07-28T01:45:26;17.10;99.90
16635;DHT22;8431;52.458;9.998;2023-07-28T01:47:53;17.10;99.90
16635;DHT22;8431;52.458;9.998;2023-07-28T01:50:20;17.00;99.90
16635;DHT22;8431;52.458;9.998;2023-07-28T01:52:47;17.00;99.90
16635;DHT22;8431;52.458;9.998;2023-07-28T01:55:17;17.00;99.90
16635;DHT22;8431;52.458;9.998;2023-07-28T01:57:53;17.00;99.90
16635;DHT22;8431;52.458;9.998;2023-07-28T02:00:20;17.10;99.90
16635;DHT22;8431;52.458;9.998;2023-07-28T02:02:49;17.00;99.90
16635;DHT22;8431;52.458;9.998;2023-07-28T02:05:17;17.10;99.90
16635;DHT22;8431;52.458;9.998;2023-07-28T02:07:44;17.00;99.90
16635;DHT22;8431;52.458;9.998;2023-07-28T02:10:11;17.00;99.90
16635;DHT22;8431;52.458;9.998;2023-07-28T02:12:38;17.00;99.90
16635;DHT22;8431;52.458;9.998;2023-07-28T02:15:06;17.00;99.90
16635;DHT22;8431;52.458;9.998;2023-07-28T02:17:34;17.00;99.90
16635;DHT22;8431;52.458;9.998;2023-07-28T02:20:03;17.00;99.90
16635;DHT22;8431;52.458;9.998;2023-07-28T02:22:30;17.00;99.90
16635;DHT22;8431;52.458;9.998;2023-07-28T02:24:57;17.00;99.90
16635;DHT22;8431;52.458;9.998;2023-07-28T02:27:27;17.00;99.90
16635;DHT22;8431;52.458;9.998;2023-07-28T02:29:54;17.00;99.90
16635;DHT22;8431;52.458;9.998;2023-07-28T02:32:21;17.00;99.90
16635;DHT22;8431;52.458;9.998;2023-07-28T02:34:48;17.00;99.90
16635;DHT22;8431;52.458;9.998;2023-07-28T02:37:17;17.10;99.90
16635;DHT22;8431;52.458;9.998;2023-07-28T02:39:44;17.00;99.90
16635;DHT22;8431;52.458;9.998;2023-07-28T02:42:11;17.10;99.90
16635;DHT22;8431;52.458;9.998;2023-07-28T02:44:38;17.10;99.90
16635;DHT22;8431;52.458;9.998;2023-07-28T02:47:06;17.10;99.90
16635;DHT22;8431;52.458;9.998;2023-07-28T02:49:33;17.10;99.90
16635;DHT22;8431;52.458;9.998;2023-07-28T02:52:00;17.10;99.90
16635;DHT22;8431;52.458;9.998;2023-07-28T02:54:30;17.10;99.90
16635;DHT22;8431;52.458;9.998;2023-07-28T02:57:00;17.10;99.90
16635;DHT22;8431;52.458;9.998;2023-07-28T02:59:27;17.10;99.90
16635;DHT22;8431;52.458;9.998;2023-07-28T03:01:54;17.10;99.90
16635;DHT22;8431;52.458;9.998;2023-07-28T03:04:23;17.00;99.90
16635;DHT22;8431;52.458;9.998;2023-07-28T03:06:50;17.10;99.90
16635;DHT22;8431;52.458;9.998;2023-07-28T03:09:20;17.10;99.90
16635;DHT22;8431;52.458;9.998;2023-07-28T03:11:48;17.10;99.90
16635;DHT22;8431;52.458;9.998;2023-07-28T03:14:15;17.10;99.90
16635;DHT22;8431;52.458;9.998;2023-07-28T03:16:43;17.10;99.90
16635;DHT22;8431;52.458;9.998;2023-07-28T03:19:13;17.00;99.90
16635;DHT22;8431;52.458;9.998;2023-07-28T03:21:39;17.00;99.90
16635;DHT22;8431;52.458;9.998;2023-07-28T03:24:06;17.10;99.90
16635;DHT22;8431;52.458;9.998;2023-07-28T03:26:34;17.10;99.90
16635;DHT22;8431;52.458;9.998;2023-07-28T03:29:02;17.00;99.90
16635;DHT22;8431;52.458;9.998;2023-07-28T03:31:29;17.10;99.90
16635;DHT22;8431;52.458;9.998;2023-07-28T03:33:56;17.10;99.90
16635;DHT22;8431;52.458;9.998;2023-07-28T03:36:23;17.10;99.90
16635;DHT22;8431;52.458;9.998;2023-07-28T03:38:50;17.10;99.90
16635;DHT22;8431;52.458;9.998;2023-07-28T03:41:17;17.10;99.90
16635;DHT22;8431;52.458;9.998;2023-07-28T03:43:44;17.10;99.90
16635;DHT22;8431;52.458;9.998;2023-07-28T03:46:13;17.10;99.90
16635;DHT22;8431;52.458;9.998;2023-07-28T03:48:40;17.10;99.90
16635;DHT22;8431;52.458;9.998;2023-07-28T03:51:07;17.10;99.90
16635;DHT22;8431;52.458;9.998;2023-07-28T03:53:34;17.10;99.90
16635;DHT22;8431;52.458;9.998;2023-07-28T03:56:02;17.10;99.90
16635;DHT22;8431;52.458;9.998;2023-07-28T03:58:29;17.10;99.90
16635;DHT22;8431;52.458;9.998;2023-07-28T04:00:56;17.10;99.90
16635;DHT22;8431;52.458;9.998;2023-07-28T04:03:24;17.10;99.90
16635;DHT22;8431;52.458;9.998;2023-07-28T04:05:54;17.10;99.90
16635;DHT22;8431;52.458;9.998;2023-07-28T04:08:21;17.10;99.90
16635;DHT22;8431;52.458;9.998;2023-07-28T04:10:48;17.10;99.90
16635;DHT22;8431;52.458;9.998;2023-07-28T04:13:15;17.10;99.90
16635;DHT22;8431;52.458;9.998;2023-07-28T04:15:42;17.20;99.90
16635;DHT22;8431;52.458;9.998;2023-07-28T04:18:09;17.10;99.90
16635;DHT22;8431;52.458;9.998;2023-07-28T04:20:37;17.20;99.90
16635;DHT22;8431;52.458;9.998;2023-07-28T04:23:04;17.20;99.90
16635;DHT22;8431;52.458;9.998;2023-07-28T04:25:31;17.10;99.90
16635;DHT22;8431;52.458;9.998;2023-07-28T04:27:58;17.10;99.90
16635;DHT22;8431;52.458;9.998;2023-07-28T04:30:25;17.10;99.90
16635;DHT22;8431;52.458;9.998;2023-07-28T04:32:52;17.10;99.90
16635;DHT22;8431;52.458;9.998;2023-07-28T04:35:19;17.10;99.90
16635;DHT22;8431;52.458;9.998;2023-07-28T04:37:47;17.20;99.90
16635;DHT22;8431;52.458;9.998;2023-07-28T04:40:14;17.20;99.90
16635;DHT22;8431;52.458;9.998;2023-07-28T04:42:41;17.20;99.90
16635;DHT22;8431;52.458;9.998;2023-07-28T04:45:09;17.20;99.90
16635;DHT22;8431;52.458;9.998;2023-07-28T04:47:36;17.20;99.90
16635;DHT22;8431;52.458;9.998;2023-07-28T04:50:03;17.20;99.90
16635;DHT22;8431;52.458;9.998;2023-07-28T04:52:30;17.20;99.90
16635;DHT22;8431;52.458;9.998;2023-07-28T04:54:59;17.20;99.90
16635;DHT22;8431;52.458;9.998;2023-07-28T04:57:26;17.20;99.90
16635;DHT22;8431;52.458;9.998;2023-07-28T04:59:53;17.20;99.90
16635;DHT22;8431;52.458;9.998;2023-07-28T05:02:29;17.20;99.90
16635;DHT22;8431;52.458;9.998;2023-07-28T05:05:04;17.20;99.90
16635;DHT22;8431;52.458;9.998;2023-07-28T05:07:31;17.20;99.90
16635;DHT22;8431;52.458;9.998;2023-07-28T05:10:00;17.20;99.90
16635;DHT22;8431;52.458;9.998;2023-07-28T05:12:27;17.30;99.90
16635;DHT22;8431;52.458;9.998;2023-07-28T05:14:54;17.30;99.90
16635;DHT22;8431;52.458;9.998;2023-07-28T05:17:21;17.40;99.90
16635;DHT22;8431;52.458;9.998;2023-07-28T05:19:49;17.40;99.90
16635;DHT22;8431;52.458;9.998;2023-07-28T05:22:17;17.30;99.90
16635;DHT22;8431;52.458;9.998;2023-07-28T05:24:44;17.30;99.90
16635;DHT22;8431;52.458;9.998;2023-07-28T05:27:13;17.30;99.90
16635;DHT22;8431;52.458;9.998;2023-07-28T05:29:40;17.30;99.90
16635;DHT22;8431;52.458;9.998;2023-07-28T05:32:08;17.40;99.90
16635;DHT22;8431;52.458;9.998;2023-07-28T05:34:41;17.40;99.90
16635;DHT22;8431;52.458;9.998;2023-07-28T05:37:08;17.40;99.90
16635;DHT22;8431;52.458;9.998;2023-07-28T05:39:35;17.40;99.90
16635;DHT22;8431;52.458;9.998;2023-07-28T05:42:02;17.40;99.90
16635;DHT22;8431;52.458;9.998;2023-07-28T05:44:31;17.50;99.90
16635;DHT22;8431;52.458;9.998;2023-07-28T05:47:00;17.50;99.90
16635;DHT22;8431;52.458;9.998;2023-07-28T05:49:27;17.50;99.90
16635;DHT22;8431;52.458;9.998;2023-07-28T05:51:55;17.50;99.90
16635;DHT22;8431;52.458;9.998;2023-07-28T05:54:22;17.50;99.90
16635;DHT22;8431;52.458;9.998;2023-07-28T05:56:49;17.60;99.90
16635;DHT22;8431;52.458;9.998;2023-07-28T05:59:16;17.70;99.90
16635;DHT22;8431;52.458;9.998;2023-07-28T06:01:44;17.70;99.90
16635;DHT22;8431;52.458;9.998;2023-07-28T06:04:11;17.70;99.90
16635;DHT22;8431;52.458;9.998;2023-07-28T06:06:38;17.70;99.90
16635;DHT22;8431;52.458;9.998;2023-07-28T06:09:05;17.70;99.90
16635;DHT22;8431;52.458;9.998;2023-07-28T06:11:33;17.60;99.90
16635;DHT22;8431;52.458;9.998;2023-07-28T06:14:01;17.60;99.90
16635;DHT22;8431;52.458;9.998;2023-07-28T06:16:28;17.60;99.90
16635;DHT22;8431;52.458;9.998;2023-07-28T06:18:58;17.70;99.90
16635;DHT22;8431;52.458;9.998;2023-07-28T06:21:25;17.70;99.90
16635;DHT22;8431;52.458;9.998;2023-07-28T06:23:55;17.80;99.90
16635;DHT22;8431;52.458;9.998;2023-07-28T06:26:22;18.00;99.90
16635;DHT22;8431;52.458;9.998;2023-07-28T06:28:49;17.90;99.90
16635;DHT22;8431;52.458;9.998;2023-07-28T06:31:16;18.10;99.90
16635;DHT22;8431;52.458;9.998;2023-07-28T06:33:43;18.10;99.90
16635;DHT22;8431;52.458;9.998;2023-07-28T06:36:11;18.10;99.90
16635;DHT22;8431;52.458;9.998;2023-07-28T06:38:38;18.10;99.90
16635;DHT22;8431;52.458;9.998;2023-07-28T06:41:05;18.20;99.90
16635;DHT22;8431;52.458;9.998;2023-07-28T06:43:32;18.40;99.90
16635;DHT22;8431;52.458;9.998;2023-07-28T06:45:59;18.80;99.90
16635;DHT22;8431;52.458;9.998;2023-07-28T06:48:26;18.80;99.90
16635;DHT22;8431;52.458;9.998;2023-07-28T06:50:53;18.40;99.90
16635;DHT22;8431;52.458;9.998;2023-07-28T06:53:22;18.50;99.90
16635;DHT22;8431;52.458;9.998;2023-07-28T06:55:48;18.40;99.90
16635;DHT22;8431;52.458;9.998;2023-07-28T06:58:15;18.50;99.90
16635;DHT22;8431;52.458;9.998;2023-07-28T07:00:42;18.60;99.90
16635;DHT22;8431;52.458;9.998;2023-07-28T07:03:10;18.70;99.90
16635;DHT22;8431;52.458;9.998;2023-07-28T07:05:37;18.70;99.90
16635;DHT22;8431;52.458;9.998;2023-07-28T07:08:04;18.70;99.90
16635;DHT22;8431;52.458;9.998;2023-07-28T07:10:32;18.70;99.90
16635;DHT22;8431;52.458;9.998;2023-07-28T07:12:59;18.80;99.90
16635;DHT22;8431;52.458;9.998;2023-07-28T07:15:26;18.80;99.90
16635;DHT22;8431;52.458;9.998;2023-07-28T07:17:54;18.80;99.90
16635;DHT22;8431;52.458;9.998;2023-07-28T07:20:21;18.90;99.90
16635;DHT22;8431;52.458;9.998;2023-07-28T07:22:48;19.00;99.90
16635;DHT22;8431;52.458;9.998;2023-07-28T07:25:15;19.10;99.90
16635;DHT22;8431;52.458;9.998;2023-07-28T07:27:44;19.20;99.90
16635;DHT22;8431;52.458;9.998;2023-07-28T07:30:11;19.10;99.90
16635;DHT22;8431;52.458;9.998;2023-07-28T07:32:38;19.10;99.90
16635;DHT22;8431;52.458;9.998;2023-07-28T07:35:06;18.90;99.90
16635;DHT22;8431;52.458;9.998;2023-07-28T07:37:34;19.10;99.90
16635;DHT22;8431;52.458;9.998;2023-07-28T07:40:01;19.20;99.90
16635;DHT22;8431;52.458;9.998;2023-07-28T07:42:40;18.80;99.90
16635;DHT22;8431;52.458;9.998;2023-07-28T07:45:10;18.80;99.90
16635;DHT22;8431;52.458;9.998;2023-07-28T07:47:38;18.80;99.90
16635;DHT22;8431;52.458;9.998;2023-07-28T07:50:06;18.90;99.90
16635;DHT22;8431;52.458;9.998;2023-07-28T07:52:34;19.00;99.90
16635;DHT22;8431;52.458;9.998;2023-07-28T07:55:01;19.20;99.90
16635;DHT22;8431;52.458;9.998;2023-07-28T07:57:29;19.30;99.90
16635;DHT22;8431;52.458;9.998;2023-07-28T07:59:57;19.40;99.90
16635;DHT22;8431;52.458;9.998;2023-07-28T08:02:26;19.90;99.90
16635;DHT22;8431;52.458;9.998;2023-07-28T08:04:53;19.80;99.90
16635;DHT22;8431;52.458;9.998;2023-07-28T08:07:21;19.90;99.90
16635;DHT22;8431;52.458;9.998;2023-07-28T08:09:48;19.70;99.90
16635;DHT22;8431;52.458;9.998;2023-07-28T08:12:16;19.70;99.90
16635;DHT22;8431;52.458;9.998;2023-07-28T08:14:43;19.50;99.90
16635;DHT22;8431;52.458;9.998;2023-07-28T08:17:12;19.20;99.90
16635;DHT22;8431;52.458;9.998;2023-07-28T08:19:40;19.10;99.90
16635;DHT22;8431;52.458;9.998;2023-07-28T08:22:07;18.90;99.90
16635;DHT22;8431;52.458;9.998;2023-07-28T08:24:34;18.80;99.90
16635;DHT22;8431;52.458;9.998;2023-07-28T08:27:01;19.10;99.90
16635;DHT22;8431;52.458;9.998;2023-07-28T08:29:29;19.20;99.90
16635;DHT22;8431;52.458;9.998;2023-07-28T08:31:56;19.10;99.90
16635;DHT22;8431;52.458;9.998;2023-07-28T08:34:24;19.10;99.90
16635;DHT22;8431;52.458;9.998;2023-07-28T08:36:52;19.30;99.90
16635;DHT22;8431;52.458;9.998;2023-07-28T08:39:19;19.30;99.90
16635;DHT22;8431;52.458;9.998;2023-07-28T08:41:46;19.60;99.90
16635;DHT22;8431;52.458;9.998;2023-07-28T08:44:13;19.70;99.90
16635;DHT22;8431;52.458;9.998;2023-07-28T08:46:42;19.70;99.90
16635;DHT22;8431;52.458;9.998;2023-07-28T08:49:09;19.90;99.90
16635;DHT22;8431;52.458;9.998;2023-07-28T08:51:41;20.10;99.90
16635;DHT22;8431;52.458;9.998;2023-07-28T08:54:09;20.10;99.90
16635;DHT22;8431;52.458;9.998;2023-07-28T08:56:37;20.50;99.90
16635;DHT22;8431;52.458;9.998;2023-07-28T08:59:04;20.50;99.90
16635;DHT22;8431;52.458;9.998;2023-07-28T09:01:31;20.70;99.90
16635;DHT22;8431;52.458;9.998;2023-07-28T09:03:57;20.90;99.90
16635;DHT22;8431;52.458;9.998;2023-07-28T09:06:28;20.80;99.90
16635;DHT22;8431;52.458;9.998;2023-07-28T09:08:56;20.70;99.90
16635;DHT22;8431;52.458;9.998;2023-07-28T09:11:25;20.70;99.90
16635;DHT22;8431;52.458;9.998;2023-07-28T09:13:54;20.40;99.90
16635;DHT22;8431;52.458;9.998;2023-07-28T09:16:22;20.30;99.90
16635;DHT22;8431;52.458;9.998;2023-07-28T09:19:04;20.30;99.90
16635;DHT22;8431;52.458;9.998;2023-07-28T09:21:32;20.30;99.90
16635;DHT22;8431;52.458;9.998;2023-07-28T09:23:59;20.10;99.90
16635;DHT22;8431;52.458;9.998;2023-07-28T09:26:38;20.20;99.90
16635;DHT22;8431;52.458;9.998;2023-07-28T09:29:15;20.40;99.90
16635;DHT22;8431;52.458;9.998;2023-07-28T09:31:43;20.50;99.90
16635;DHT22;8431;52.458;9.998;2023-07-28T09:34:10;20.90;99.90
16635;DHT22;8431;52.458;9.998;2023-07-28T09:36:37;21.00;99.90
16635;DHT22;8431;52.458;9.998;2023-07-28T09:39:05;21.40;99.90
16635;DHT22;8431;52.458;9.998;2023-07-28T09:41:36;21.80;99.90
16635;DHT22;8431;52.458;9.998;2023-07-28T09:44:04;21.50;99.90
16635;DHT22;8431;52.458;9.998;2023-07-28T09:46:33;21.00;99.90
16635;DHT22;8431;52.458;9.998;2023-07-28T09:49:05;20.90;99.90
16635;DHT22;8431;52.458;9.998;2023-07-28T09:51:39;20.70;99.90
16635;DHT22;8431;52.458;9.998;2023-07-28T09:54:29;20.90;99.90
16635;DHT22;8431;52.458;9.998;2023-07-28T09:56:58;21.20;99.90
16635;DHT22;8431;52.458;9.998;2023-07-28T09:59:29;21.30;99.90
16635;DHT22;8431;52.458;9.998;2023-07-28T10:01:59;21.40;99.90
16635;DHT22;8431;52.458;9.998;2023-07-28T10:04:26;21.50;99.90
16635;DHT22;8431;52.458;9.998;2023-07-28T10:06:53;21.90;99.90
16635;DHT22;8431;52.458;9.998;2023-07-28T10:09:23;22.10;99.90
16635;DHT22;8431;52.458;9.998;2023-07-28T10:11:51;22.40;99.90
16635;DHT22;8431;52.458;9.998;2023-07-28T10:14:27;22.40;99.90
16635;DHT22;8431;52.458;9.998;2023-07-28T10:16:56;22.10;99.90
16635;DHT22;8431;52.458;9.998;2023-07-28T10:19:25;21.80;99.90
16635;DHT22;8431;52.458;9.998;2023-07-28T10:21:59;21.80;99.90
16635;DHT22;8431;52.458;9.998;2023-07-28T10:24:50;22.00;99.90
16635;DHT22;8431;52.458;9.998;2023-07-28T10:27:31;22.30;99.90
16635;DHT22;8431;52.458;9.998;2023-07-28T10:30:21;22.10;99.90
16635;DHT22;8431;52.458;9.998;2023-07-28T10:40:49;21.30;99.90
16635;DHT22;8431;52.458;9.998;2023-07-28T10:54:12;22.60;99.90
16635;DHT22;8431;52.458;9.998;2023-07-28T11:00:02;22.60;99.90
16635;DHT22;8431;52.458;9.998;2023-07-28T11:02:31;22.60;99.90
16635;DHT22;8431;52.458;9.998;2023-07-28T11:04:58;22.40;99.90
16635;DHT22;8431;52.458;9.998;2023-07-28T11:07:26;22.20;99.90
16635;DHT22;8431;52.458;9.998;2023-07-28T11:09:59;22.30;99.90
16635;DHT22;8431;52.458;9.998;2023-07-28T11:12:35;22.00;99.90
16635;DHT22;8431;52.458;9.998;2023-07-28T11:15:02;22.00;99.90
16635;DHT22;8431;52.458;9.998;2023-07-28T11:17:29;21.90;99.90
16635;DHT22;8431;52.458;9.998;2023-07-28T11:19:56;21.90;99.90
16635;DHT22;8431;52.458;9.998;2023-07-28T11:23:00;22.10;99.90
16635;DHT22;8431;52.458;9.998;2023-07-28T11:26:02;22.10;99.90
16635;DHT22;8431;52.458;9.998;2023-07-28T11:28:29;22.30;99.90
16635;DHT22;8431;52.458;9.998;2023-07-28T11:30:57;22.30;99.90
16635;DHT22;8431;52.458;9.998;2023-07-28T11:33:27;22.40;99.90
16635;DHT22;8431;52.458;9.998;2023-07-28T11:35:55;22.90;99.90
16635;DHT22;8431;52.458;9.998;2023-07-28T11:38:25;23.00;99.90
16635;DHT22;8431;52.458;9.998;2023-07-28T11:41:12;23.00;99.90
16635;DHT22;8431;52.458;9.998;2023-07-28T11:43:39;23.00;99.90
16635;DHT22;8431;52.458;9.998;2023-07-28T11:46:33;23.20;99.90
16635;DHT22;8431;52.458;9.998;2023-07-28T11:49:08;22.80;99.90
16635;DHT22;8431;52.458;9.998;2023-07-28T11:51:39;23.20;99.90
16635;DHT22;8431;52.458;9.998;2023-07-28T11:54:10;23.30;99.90
16635;DHT22;8431;52.458;9.998;2023-07-28T11:56:41;23.50;99.90
16635;DHT22;8431;52.458;9.998;2023-07-28T11:59:44;23.40;99.90
16635;DHT22;8431;52.458;9.998;2023-07-28T12:24:15;23.70;99.90
16635;DHT22;8431;52.458;9.998;2023-07-28T12:36:59;24.10;99.90
16635;DHT22;8431;52.458;9.998;2023-07-28T12:45:26;23.70;99.90
16635;DHT22;8431;52.458;9.998;2023-07-28T12:47:53;24.10;99.90
16635;DHT22;8431;52.458;9.998;2023-07-28T12:50:22;23.80;99.90
16635;DHT22;8431;52.458;9.998;2023-07-28T12:52:49;23.70;99.90
16635;DHT22;8431;52.458;9.998;2023-07-28T12:55:17;23.50;99.90
16635;DHT22;8431;52.458;9.998;2023-07-28T12:57:44;23.50;99.90
16635;DHT22;8431;52.458;9.998;2023-07-28T13:00:14;23.70;99.90
16635;DHT22;8431;52.458;9.998;2023-07-28T13:02:43;23.90;99.90
16635;DHT22;8431;52.458;9.998;2023-07-28T13:05:14;24.00;99.90
16635;DHT22;8431;52.458;9.998;2023-07-28T13:07:43;24.20;99.90
16635;DHT22;8431;52.458;9.998;2023-07-28T13:10:10;24.60;99.90
16635;DHT22;8431;52.458;9.998;2023-07-28T13:12:38;24.40;99.90
16635;DHT22;8431;52.458;9.998;2023-07-28T13:15:06;23.90;99.90
16635;DHT22;8431;52.458;9.998;2023-07-28T13:17:33;23.50;99.90
16635;DHT22;8431;52.458;9.998;2023-07-28T13:20:02;23.20;99.90
16635;DHT22;8431;52.458;9.998;2023-07-28T13:22:29;23.50;99.90
16635;DHT22;8431;52.458;9.998;2023-07-28T13:24:56;23.80;99.90
16635;DHT22;8431;52.458;9.998;2023-07-28T13:27:23;24.00;99.90
16635;DHT22;8431;52.458;9.998;2023-07-28T13:29:50;24.00;99.90
16635;DHT22;8431;52.458;9.998;2023-07-28T13:32:25;24.20;99.90
16635;DHT22;8431;52.458;9.998;2023-07-28T13:34:52;24.40;99.90
16635;DHT22;8431;52.458;9.998;2023-07-28T13:37:21;24.20;99.90
16635;DHT22;8431;52.458;9.998;2023-07-28T13:39:51;24.00;99.90
16635;DHT22;8431;52.458;9.998;2023-07-28T13:42:30;24.40;99.90
16635;DHT22;8431;52.458;9.998;2023-07-28T13:44:57;24.40;99.90
16635;DHT22;8431;52.458;9.998;2023-07-28T13:47:24;24.20;99.90
16635;DHT22;8431;52.458;9.998;2023-07-28T13:49:52;24.40;99.90
16635;DHT22;8431;52.458;9.998;2023-07-28T13:52:21;24.40;99.90
16635;DHT22;8431;52.458;9.998;2023-07-28T13:54:48;24.70;99.90
16635;DHT22;8431;52.458;9.998;2023-07-28T13:57:15;24.90;99.90
16635;DHT22;8431;52.458;9.998;2023-07-28T13:59:43;24.70;99.90
16635;DHT22;8431;52.458;9.998;2023-07-28T14:02:10;25.10;99.90
16635;DHT22;8431;52.458;9.998;2023-07-28T14:04:38;25.00;99.90
16635;DHT22;8431;52.458;9.998;2023-07-28T14:07:05;24.50;99.90
16635;DHT22;8431;52.458;9.998;2023-07-28T14:09:33;24.30;99.90
16635;DHT22;8431;52.458;9.998;2023-07-28T14:12:01;24.50;99.90
16635;DHT22;8431;52.458;9.998;2023-07-28T14:14:55;24.80;99.90
16635;DHT22;8431;52.458;9.998;2023-07-28T14:17:22;25.00;99.90
16635;DHT22;8431;52.458;9.998;2023-07-28T14:19:49;24.60;99.90
16635;DHT22;8431;52.458;9.998;2023-07-28T14:22:17;24.60;99.90
16635;DHT22;8431;52.458;9.998;2023-07-28T14:24:46;25.00;99.90
16635;DHT22;8431;52.458;9.998;2023-07-28T14:27:13;25.10;99.90
16635;DHT22;8431;52.458;9.998;2023-07-28T14:29:40;24.80;99.90
16635;DHT22;8431;52.458;9.998;2023-07-28T14:32:08;25.10;99.90
16635;DHT22;8431;52.458;9.998;2023-07-28T14:34:35;25.40;99.90
16635;DHT22;8431;52.458;9.998;2023-07-28T14:37:04;25.20;99.90
16635;DHT22;8431;52.458;9.998;2023-07-28T14:39:31;25.20;99.90
16635;DHT22;8431;52.458;9.998;2023-07-28T14:42:00;25.40;99.90
16635;DHT22;8431;52.458;9.998;2023-07-28T14:44:28;26.00;99.90
16635;DHT22;8431;52.458;9.998;2023-07-28T14:46:56;25.70;99.90
16635;DHT22;8431;52.458;9.998;2023-07-28T14:49:23;25.50;99.90
16635;DHT22;8431;52.458;9.998;2023-07-28T14:51:53;25.40;99.90
16635;DHT22;8431;52.458;9.998;2023-07-28T14:54:20;25.70;99.90
16635;DHT22;8431;52.458;9.998;2023-07-28T14:56:47;25.80;99.90
16635;DHT22;8431;52.458;9.998;2023-07-28T14:59:15;25.70;99.90
16635;DHT22;8431;52.458;9.998;2023-07-28T15:01:43;25.70;99.90
16635;DHT22;8431;52.458;9.998;2023-07-28T15:04:12;26.30;99.90
16635;DHT22;8431;52.458;9.998;2023-07-28T15:06:42;26.20;99.90
16635;DHT22;8431;52.458;9.998;2023-07-28T15:09:10;25.70;99.90
16635;DHT22;8431;52.458;9.998;2023-07-28T15:11:36;25.20;99.90
16635;DHT22;8431;52.458;9.998;2023-07-28T15:14:03;25.10;99.90
16635;DHT22;8431;52.458;9.998;2023-07-28T15:16:32;25.10;99.90
16635;DHT22;8431;52.458;9.998;2023-07-28T15:18:59;25.30;99.90
16635;DHT22;8431;52.458;9.998;2023-07-28T15:21:26;25.10;99.90
16635;DHT22;8431;52.458;9.998;2023-07-28T15:23:55;24.90;99.90
16635;DHT22;8431;52.458;9.998;2023-07-28T15:26:22;24.80;99.90
16635;DHT22;8431;52.458;9.998;2023-07-28T15:28:52;24.60;99.90
16635;DHT22;8431;52.458;9.998;2023-07-28T15:31:43;24.30;99.90
16635;DHT22;8431;52.458;9.998;2023-07-28T15:34:10;24.30;99.90
16635;DHT22;8431;52.458;9.998;2023-07-28T15:36:37;24.20;99.90
16635;DHT22;8431;52.458;9.998;2023-07-28T15:39:03;24.20;99.90
16635;DHT22;8431;52.458;9.998;2023-07-28T15:41:30;24.20;99.90
16635;DHT22;8431;52.458;9.998;2023-07-28T15:43:57;24.20;99.90
16635;DHT22;8431;52.458;9.998;2023-07-28T15:46:24;24.20;99.90
16635;DHT22;8431;52.458;9.998;2023-07-28T15:48:53;23.00;99.90
16635;DHT22;8431;52.458;9.998;2023-07-28T15:51:20;22.70;99.90
16635;DHT22;8431;52.458;9.998;2023-07-28T15:53:47;22.50;99.90
16635;DHT22;8431;52.458;9.998;2023-07-28T15:56:14;22.30;99.90
16635;DHT22;8431;52.458;9.998;2023-07-28T15:58:41;22.30;99.90
16635;DHT22;8431;52.458;9.998;2023-07-28T16:01:08;22.60;99.90
16635;DHT22;8431;52.458;9.998;2023-07-28T16:03:35;22.60;99.90
16635;DHT22;8431;52.458;9.998;2023-07-28T16:06:05;22.90;99.90
16635;DHT22;8431;52.458;9.998;2023-07-28T16:08:32;23.70;99.90
16635;DHT22;8431;52.458;9.998;2023-07-28T16:10:59;24.20;99.90
16635;DHT22;8431;52.458;9.998;2023-07-28T16:13:26;24.10;99.90
16635;DHT22;8431;52.458;9.998;2023-07-28T16:15:53;23.80;99.90
16635;DHT22;8431;52.458;9.998;2023-07-28T16:18:20;24.00;99.90
16635;DHT22;8431;52.458;9.998;2023-07-28T16:20:47;23.60;99.90
16635;DHT22;8431;52.458;9.998;2023-07-28T16:23:18;22.90;99.90
16635;DHT22;8431;52.458;9.998;2023-07-28T16:26:08;23.70;99.90
16635;DHT22;8431;52.458;9.998;2023-07-28T16:31:44;26.10;99.90
16635;DHT22;8431;52.458;9.998;2023-07-28T16:34:20;26.80;99.90
16635;DHT22;8431;52.458;9.998;2023-07-28T16:37:01;26.60;99.90
16635;DHT22;8431;52.458;9.998;2023-07-28T16:39:30;26.00;99.90
16635;DHT22;8431;52.458;9.998;2023-07-28T16:42:12;25.60;99.90
16635;DHT22;8431;52.458;9.998;2023-07-28T16:44:40;25.80;99.90
16635;DHT22;8431;52.458;9.998;2023-07-28T16:47:11;25.70;99.90
16635;DHT22;8431;52.458;9.998;2023-07-28T16:49:45;25.30;99.90
16635;DHT22;8431;52.458;9.998;2023-07-28T16:52:16;25.40;99.90
16635;DHT22;8431;52.458;9.998;2023-07-28T16:58:19;25.20;99.90
16635;DHT22;8431;52.458;9.998;2023-07-28T17:00:46;24.70;99.90
16635;DHT22;8431;52.458;9.998;2023-07-28T17:03:13;24.00;99.90